Aviation Digital Data Service (ADDS)

Output produced by METARs form (1218 UTC 26 March 2019)
found at http://www.aviationweather.gov/metar/data/
 
METAR text: FWKI 261200Z 15008KT 9999 TS FEW032CB SCT035 28/18 Q1017 NOSIG
Conditions at: FWKI (KAMUZU INTL AIRP, MW) observed 1200 UTC 26 March 2019
Temperature: 28.0°C (82°F)
Dewpoint: 18.0°C (64°F) [RH = 55%]
Pressure (altimeter): 30.03 inches Hg (1017.0 mb)
Winds: from the SSE (150 degrees) at 9 MPH (8 knots; 4.1 m/s)
Visibility: 6 or more miles (10+ km)
Ceiling: at least 12,000 feet AGL
Clouds: few clouds at 3200 feet AGL
scattered clouds at 3500 feet AGL
Weather: TS  (thunderstorm)

METAR text: FWKI 261100Z 16004KT 9999 TS FEW030CB BKN032 27/19 Q1018 NOSIG
Conditions at: FWKI (KAMUZU INTL AIRP, MW) observed 1100 UTC 26 March 2019
Temperature: 27.0°C (81°F)
Dewpoint: 19.0°C (66°F) [RH = 62%]
Pressure (altimeter): 30.06 inches Hg (1018.0 mb)
Winds: from the SSE (160 degrees) at 5 MPH (4 knots; 2.1 m/s)
Visibility: 6 or more miles (10+ km)
Ceiling: 3200 feet AGL
Clouds: few clouds at 3000 feet AGL
broken clouds at 3200 feet AGL
Weather: TS  (thunderstorm)

METAR text: FWKI 261000Z 14004KT 9999 FEW030CB BKN033 26/17 Q1018 NOSIG
Conditions at: FWKI (KAMUZU INTL AIRP, MW) observed 1000 UTC 26 March 2019
Temperature: 26.0°C (79°F)
Dewpoint: 17.0°C (63°F) [RH = 58%]
Pressure (altimeter): 30.06 inches Hg (1018.0 mb)
Winds: from the SE (140 degrees) at 5 MPH (4 knots; 2.1 m/s)
Visibility: 6 or more miles (10+ km)
Ceiling: 3300 feet AGL
Clouds: few clouds at 3000 feet AGL
broken clouds at 3300 feet AGL
Weather: no significant weather observed at this time

METAR text: FWKI 260900Z 00000KT 9999 BKN030TCU 26/18 Q1019 NOSIG
Conditions at: FWKI (KAMUZU INTL AIRP, MW) observed 0900 UTC 26 March 2019
Temperature: 26.0°C (79°F)
Dewpoint: 18.0°C (64°F) [RH = 61%]
Pressure (altimeter): 30.09 inches Hg (1019.0 mb)
Winds: calm
Visibility: 6 or more miles (10+ km)
Ceiling: 3000 feet AGL
Clouds: broken clouds at 3000 feet AGL
Weather: no significant weather observed at this time

METAR text: FWKI 260800Z VRB02KT 9999 SCT025 25/19 Q1020 NOSIG
Conditions at: FWKI (KAMUZU INTL AIRP, MW) observed 0800 UTC 26 March 2019
Temperature: 25.0°C (77°F)
Dewpoint: 19.0°C (66°F) [RH = 69%]
Pressure (altimeter): 30.12 inches Hg (1020.0 mb)
Winds: variable direction winds at 2 MPH (2 knots; 1.0 m/s)
Visibility: 6 or more miles (10+ km)
Ceiling: at least 12,000 feet AGL
Clouds: scattered clouds at 2500 feet AGL
Weather: no significant weather observed at this time

METAR text: FWKI 260700Z VRB02KT 9999 FEW020 22/20 Q1020 NOSIG
Conditions at: FWKI (KAMUZU INTL AIRP, MW) observed 0700 UTC 26 March 2019
Temperature: 22.0°C (72°F)
Dewpoint: 20.0°C (68°F) [RH = 88%]
Pressure (altimeter): 30.12 inches Hg (1020.0 mb)
Winds: variable direction winds at 2 MPH (2 knots; 1.0 m/s)
Visibility: 6 or more miles (10+ km)
Ceiling: at least 12,000 feet AGL
Clouds: few clouds at 2000 feet AGL
Weather: no significant weather observed at this time

METAR text: FWKI 260600Z VRB02KT 9999 FEW015 21/20 Q1020 NOSIG
Conditions at: FWKI (KAMUZU INTL AIRP, MW) observed 0600 UTC 26 March 2019
Temperature: 21.0°C (70°F)
Dewpoint: 20.0°C (68°F) [RH = 94%]
Pressure (altimeter): 30.12 inches Hg (1020.0 mb)
Winds: variable direction winds at 2 MPH (2 knots; 1.0 m/s)
Visibility: 6 or more miles (10+ km)
Ceiling: at least 12,000 feet AGL
Clouds: few clouds at 1500 feet AGL
Weather: no significant weather observed at this time

METAR text: FWKI 260400Z 00000KT 0500 FG FEW002 SCT080 18/18 Q1018 BECMG 5000
Conditions at: FWKI (KAMUZU INTL AIRP, MW) observed 0400 UTC 26 March 2019
Temperature: 18.0°C (64°F)
Dewpoint: 18.0°C (64°F) [RH = 100%]
Pressure (altimeter): 30.06 inches Hg (1018.0 mb)
Winds: calm
Visibility: 0.31 miles (0.50 km)
Ceiling: at least 12,000 feet AGL
Clouds: few clouds at 200 feet AGL
scattered clouds at 8000 feet AGL
Weather: FG  (fog)

METAR text: FWKI 251600Z 07005KT 9999 FEW020CB SCT080 18/18 Q1017 NOSIG
Conditions at: FWKI (KAMUZU INTL AIRP, MW) observed 1600 UTC 25 March 2019
Temperature: 18.0°C (64°F)
Dewpoint: 18.0°C (64°F) [RH = 100%]
Pressure (altimeter): 30.03 inches Hg (1017.0 mb)
Winds: from the ENE (70 degrees) at 6 MPH (5 knots; 2.6 m/s)
Visibility: 6 or more miles (10+ km)
Ceiling: at least 12,000 feet AGL
Clouds: few clouds at 2000 feet AGL
scattered clouds at 8000 feet AGL
Weather: no significant weather observed at this time

METAR text: FWKI 251500Z 03003KT 9999 -TSRA FEW020CB SCT023 18/17 Q1017 NOSIG
Conditions at: FWKI (KAMUZU INTL AIRP, MW) observed 1500 UTC 25 March 2019
Temperature: 18.0°C (64°F)
Dewpoint: 17.0°C (63°F) [RH = 94%]
Pressure (altimeter): 30.03 inches Hg (1017.0 mb)
Winds: from the NNE (30 degrees) at 3 MPH (3 knots; 1.5 m/s)
Visibility: 6 or more miles (10+ km)
Ceiling: at least 12,000 feet AGL
Clouds: few clouds at 2000 feet AGL
scattered clouds at 2300 feet AGL
Weather: -TSRA  (light rain associated with thunderstorm(s))

METAR text: FWKI 251400Z 15010KT 3000 TSRA FEW020CB BKN023 21/20 Q1017 BECMG 8000 -TSRA
Conditions at: FWKI (KAMUZU INTL AIRP, MW) observed 1400 UTC 25 March 2019
Temperature: 21.0°C (70°F)
Dewpoint: 20.0°C (68°F) [RH = 94%]
Pressure (altimeter): 30.03 inches Hg (1017.0 mb)
Winds: from the SSE (150 degrees) at 12 MPH (10 knots; 5.1 m/s)
Visibility: 1.86 miles (2.99 km)
Ceiling: 2300 feet AGL
Clouds: few clouds at 2000 feet AGL
broken clouds at 2300 feet AGL
Weather: TSRA  (rain associated with thunderstorm(s))

METAR text: FWKI 251330Z 22013KT 5000 TSRA FEW020CB BKN023 22/19 Q1017 BECMG 8000 -TSRA
Conditions at: FWKI (KAMUZU INTL AIRP, MW) observed 1330 UTC 25 March 2019
Temperature: 22.0°C (72°F)
Dewpoint: 19.0°C (66°F) [RH = 83%]
Pressure (altimeter): 30.03 inches Hg (1017.0 mb)
Winds: from the SW (220 degrees) at 15 MPH (13 knots; 6.7 m/s)
Visibility: 3 miles ( 5 km)
Ceiling: 2300 feet AGL
Clouds: few clouds at 2000 feet AGL
broken clouds at 2300 feet AGL
Weather: TSRA  (rain associated with thunderstorm(s))

METAR text: FWKI 251300Z 03005KT 9999 TS FEW027CB BKN030 25/19 Q1016 TEMPO 7000 TSRA
Conditions at: FWKI (KAMUZU INTL AIRP, MW) observed 1300 UTC 25 March 2019
Temperature: 25.0°C (77°F)
Dewpoint: 19.0°C (66°F) [RH = 69%]
Pressure (altimeter): 30.00 inches Hg (1016.0 mb)
Winds: from the NNE (30 degrees) at 6 MPH (5 knots; 2.6 m/s)
Visibility: 6 or more miles (10+ km)
Ceiling: 3000 feet AGL
Clouds: few clouds at 2700 feet AGL
broken clouds at 3000 feet AGL
Weather: TS  (thunderstorm)

METAR text: FWKI 251200Z 03010KT 9999 FEW030CB BKN032 25/19 Q1016 NOSIG
Conditions at: FWKI (KAMUZU INTL AIRP, MW) observed 1200 UTC 25 March 2019
Temperature: 25.0°C (77°F)
Dewpoint: 19.0°C (66°F) [RH = 69%]
Pressure (altimeter): 30.00 inches Hg (1016.0 mb)
Winds: from the NNE (30 degrees) at 12 MPH (10 knots; 5.1 m/s)
Visibility: 6 or more miles (10+ km)
Ceiling: 3200 feet AGL
Clouds: few clouds at 3000 feet AGL
broken clouds at 3200 feet AGL
Weather: no significant weather observed at this time

METAR text: FWKI 251100Z 03006KT 9999 FEW030CB BKN032 24/19 Q1017 NOSIG
Conditions at: FWKI (KAMUZU INTL AIRP, MW) observed 1100 UTC 25 March 2019
Temperature: 24.0°C (75°F)
Dewpoint: 19.0°C (66°F) [RH = 74%]
Pressure (altimeter): 30.03 inches Hg (1017.0 mb)
Winds: from the NNE (30 degrees) at 7 MPH (6 knots; 3.1 m/s)
Visibility: 6 or more miles (10+ km)
Ceiling: 3200 feet AGL
Clouds: few clouds at 3000 feet AGL
broken clouds at 3200 feet AGL
Weather: no significant weather observed at this time

METAR text: FWKI 251000Z 00000KT 9999 FEW032CB BKN035 25/18 Q1018 NOSIG
Conditions at: FWKI (KAMUZU INTL AIRP, MW) observed 1000 UTC 25 March 2019
Temperature: 25.0°C (77°F)
Dewpoint: 18.0°C (64°F) [RH = 65%]
Pressure (altimeter): 30.06 inches Hg (1018.0 mb)
Winds: calm
Visibility: 6 or more miles (10+ km)
Ceiling: 3500 feet AGL
Clouds: few clouds at 3200 feet AGL
broken clouds at 3500 feet AGL
Weather: no significant weather observed at this time

METAR text: FWKI 250900Z 13003KT 9999 FEW030CB BKN033 24/19 Q1019 NOSIG
Conditions at: FWKI (KAMUZU INTL AIRP, MW) observed 0900 UTC 25 March 2019
Temperature: 24.0°C (75°F)
Dewpoint: 19.0°C (66°F) [RH = 74%]
Pressure (altimeter): 30.09 inches Hg (1019.0 mb)
Winds: from the SE (130 degrees) at 3 MPH (3 knots; 1.5 m/s)
Visibility: 6 or more miles (10+ km)
Ceiling: 3300 feet AGL
Clouds: few clouds at 3000 feet AGL
broken clouds at 3300 feet AGL
Weather: no significant weather observed at this time

METAR text: FWKI 250800Z 12006KT 9999 FEW028CB BKN030 24/20 Q1020 NOSIG
Conditions at: FWKI (KAMUZU INTL AIRP, MW) observed 0800 UTC 25 March 2019
Temperature: 24.0°C (75°F)
Dewpoint: 20.0°C (68°F) [RH = 78%]
Pressure (altimeter): 30.12 inches Hg (1020.0 mb)
Winds: from the ESE (120 degrees) at 7 MPH (6 knots; 3.1 m/s)
Visibility: 6 or more miles (10+ km)
Ceiling: 3000 feet AGL
Clouds: few clouds at 2800 feet AGL
broken clouds at 3000 feet AGL
Weather: no significant weather observed at this time

METAR text: FWKI 250700Z 12005KT 9999 FEW025CB BKN028 22/19 Q1021 NOSIG
Conditions at: FWKI (KAMUZU INTL AIRP, MW) observed 0700 UTC 25 March 2019
Temperature: 22.0°C (72°F)
Dewpoint: 19.0°C (66°F) [RH = 83%]
Pressure (altimeter): 30.15 inches Hg (1021.0 mb)
Winds: from the ESE (120 degrees) at 6 MPH (5 knots; 2.6 m/s)
Visibility: 6 or more miles (10+ km)
Ceiling: 2800 feet AGL
Clouds: few clouds at 2500 feet AGL
broken clouds at 2800 feet AGL
Weather: no significant weather observed at this time

METAR text: FWKI 250600Z 18005KT 9999 FEW023CB BKN025 23/17 Q1019 NOSIG
Conditions at: FWKI (KAMUZU INTL AIRP, MW) observed 0600 UTC 25 March 2019
Temperature: 23.0°C (73°F)
Dewpoint: 17.0°C (63°F) [RH = 69%]
Pressure (altimeter): 30.09 inches Hg (1019.0 mb)
Winds: from the S (180 degrees) at 6 MPH (5 knots; 2.6 m/s)
Visibility: 6 or more miles (10+ km)
Ceiling: 2500 feet AGL
Clouds: few clouds at 2300 feet AGL
broken clouds at 2500 feet AGL
Weather: no significant weather observed at this time

METAR text: FWKI 250500Z 17008KT 9999 FEW020CB BKN023 BKN090 20/18 Q1018 NOSIG
Conditions at: FWKI (KAMUZU INTL AIRP, MW) observed 0500 UTC 25 March 2019
Temperature: 20.0°C (68°F)
Dewpoint: 18.0°C (64°F) [RH = 88%]
Pressure (altimeter): 30.06 inches Hg (1018.0 mb)
Winds: from the S (170 degrees) at 9 MPH (8 knots; 4.1 m/s)
Visibility: 6 or more miles (10+ km)
Ceiling: 2300 feet AGL
Clouds: few clouds at 2000 feet AGL
broken clouds at 2300 feet AGL
broken clouds at 9000 feet AGL
Weather: no significant weather observed at this time

METAR text: FWKI 250400Z 17006KT 9999 SCT007 BKN018 BKN090 19/18 Q//// NOSIG
Conditions at: FWKI (KAMUZU INTL AIRP, MW) observed 0400 UTC 25 March 2019
Temperature: 19.0°C (66°F)
Dewpoint: 18.0°C (64°F) [RH = 94%]
Pressure (altimeter): missing
Winds: from the S (170 degrees) at 7 MPH (6 knots; 3.1 m/s)
Visibility: 6 or more miles (10+ km)
Ceiling: 1800 feet AGL
Clouds: scattered clouds at 700 feet AGL
broken clouds at 1800 feet AGL
broken clouds at 9000 feet AGL
Weather: no significant weather observed at this time

Forecast for: FWKI (KAMUZU INTL AIRP, MW)
Text: TAF FWKI 261000Z 2612/2718 VRB02KT 9999 BKN025
Forecast period: 1200 UTC 26 March 2019 to 1800 UTC 27 March 2019
Forecast type: FROM: standard forecast or significant change
Winds: variable direction winds at 2 MPH (2 knots; 1.0 m/s)
Visibility: 6 or more miles 10+ km)
Ceiling: 2500 feet AGL
Clouds: broken clouds at 2500 feet AGL
Weather: no significant weather forecast for this period
Text: BECMG 2612/2614 13005KT 9999 FEW025CB BKN030
Forecast period: 1200 to 1800 UTC 26 March 2019
Forecast type: BECOMING: Conditions expected to become as follows by 1400 UTC 26 March 2019
Winds: from the SE (130 degrees) at 6 MPH (5 knots; 2.6 m/s)
Visibility: 6 or more miles 10+ km)
Ceiling: 3000 feet AGL
Clouds: few clouds at 2500 feet AGL
broken clouds at 3000 feet AGL
Weather: no significant weather forecast for this period
Text: BECMG 2618/2620 FEW030CB SCT080
Forecast period: 1800 UTC 26 March 2019 to 0600 UTC 27 March 2019
Forecast type: BECOMING: Conditions expected to become as follows by 2000 UTC 26 March 2019
Winds: from the SE (130 degrees) at 6 MPH (5 knots; 2.6 m/s)
Visibility: 6 or more miles 10+ km)
Ceiling: at least 12,000 feet AGL
Clouds: few clouds at 3000 feet AGL
scattered clouds at 8000 feet AGL
Weather: no significant weather forecast for this period
Text: BECMG 2706/2708 14008KT 9999 SCT020
Forecast period: 0600 to 0900 UTC 27 March 2019
Forecast type: BECOMING: Conditions expected to become as follows by 0800 UTC 27 March 2019
Winds: from the SE (140 degrees) at 9 MPH (8 knots; 4.1 m/s)
Visibility: 6 or more miles 10+ km)
Ceiling: at least 12,000 feet AGL
Clouds: scattered clouds at 2000 feet AGL
Weather: no significant weather forecast for this period
Text: BECMG 2709/2711 17010KT FEW025
Forecast period: 0900 to 1400 UTC 27 March 2019
Forecast type: BECOMING: Conditions expected to become as follows by 1100 UTC 27 March 2019
Winds: from the S (170 degrees) at 12 MPH (10 knots; 5.1 m/s)
Visibility: 6 or more miles 10+ km)
Ceiling: at least 12,000 feet AGL
Clouds: few clouds at 2500 feet AGL
Weather: no significant weather forecast for this period
Text: BECMG 2714/2716 FEW040
Forecast period: 1400 to 1800 UTC 27 March 2019
Forecast type: BECOMING: Conditions expected to become as follows by 1600 UTC 27 March 2019
Winds: from the S (170 degrees) at 12 MPH (10 knots; 5.1 m/s)
Visibility: 6 or more miles 10+ km)
Ceiling: at least 12,000 feet AGL
Clouds: few clouds at 4000 feet AGL
Weather: no significant weather forecast for this period